Time;durP1;ratioP1;P1;durP2;ratioP2;P2;SDS_P1;SDS_P2;PMS_P1;PMS_P2;Temp;Humidity;BMP_temperature;BMP_pressure;BME280_temperature;BME280_humidity;BME280_pressure;Samples;Min_cycle;Max_cycle;Signal;HPM_P1;HPM_P2
2022/10/11 00:01:17;;;;;;;12.47;11.30;;;;;;;10.57;100.00;99748.28;6306166;22;20717;-82
2022/10/11 00:03:44;;;;;;;12.43;11.23;;;;;;;10.62;100.00;99751.13;6305534;22;20210;-82
2022/10/11 00:06:11;;;;;;;12.63;11.33;;;;;;;10.67;100.00;99759.34;6304843;22;20207;-83
2022/10/11 00:08:37;;;;;;;14.87;11.90;;;;;;;10.65;100.00;99745.31;6305638;22;20269;-83
2022/10/11 00:11:06;;;;;;;12.70;11.40;;;;;;;10.59;100.00;99755.03;6289822;22;20262;-82
2022/10/11 00:13:33;;;;;;;12.77;11.47;;;;;;;10.56;100.00;99762.69;6305004;22;20211;-81
2022/10/11 00:16:00;;;;;;;12.83;11.53;;;;;;;10.54;100.00;99762.91;6278338;22;20280;-82
2022/10/11 00:18:27;;;;;;;12.17;10.87;;;;;;;10.57;100.00;99762.50;6305190;22;20280;-84
2022/10/11 00:21:06;;;;;;;12.93;11.80;;;;;;;10.52;100.00;99756.97;6305746;22;20191;-82
2022/10/11 00:23:34;;;;;;;13.50;11.77;;;;;;;10.50;100.00;99753.66;6305640;22;20203;-82
2022/10/11 00:26:03;;;;;;;13.27;11.97;;;;;;;10.55;100.00;99753.84;6304231;22;20204;-81
2022/10/11 00:28:30;;;;;;;13.07;11.77;;;;;;;10.56;100.00;99752.81;6278326;22;20648;-82
2022/10/11 00:30:57;;;;;;;12.47;11.37;;;;;;;10.55;100.00;99750.34;6305040;22;20234;-84
2022/10/11 00:33:24;;;;;;;13.40;12.00;;;;;;;10.52;100.00;99748.94;6305104;22;20203;-84
2022/10/11 00:35:50;;;;;;;13.07;11.63;;;;;;;10.56;100.00;99749.31;6277949;22;20203;-84
2022/10/11 00:38:17;;;;;;;13.87;12.23;;;;;;;10.62;100.00;99747.63;6305260;22;20183;-83
2022/10/11 00:40:44;;;;;;;12.87;11.50;;;;;;;10.62;100.00;99748.44;6305477;22;20203;-83
2022/10/11 00:43:16;;;;;;;12.80;11.60;;;;;;;10.63;100.00;99752.78;6278216;22;20211;-83
2022/10/11 00:45:59;;;;;;;12.53;11.23;;;;;;;10.65;100.00;99748.00;6278339;22;20207;-84
2022/10/11 00:48:39;;;;;;;12.83;11.53;;;;;;;10.62;100.00;99755.66;6305050;22;20203;-83
2022/10/11 00:51:18;;;;;;;12.90;11.67;;;;;;;10.60;100.00;99747.84;6278044;22;20235;-84
2022/10/11 00:53:46;;;;;;;14.30;11.67;;;;;;;10.58;100.00;99753.44;6278207;22;20207;-88
2022/10/11 00:56:21;;;;;;;13.60;12.20;;;;;;;10.64;100.00;99758.97;6304415;22;20207;-84
2022/10/11 00:58:48;;;;;;;13.20;12.00;;;;;;;10.59;100.00;99763.09;6278135;22;20203;-82
2022/10/11 01:01:15;;;;;;;13.20;11.83;;;;;;;10.64;100.00;99764.31;6304783;22;20210;-81
2022/10/11 01:03:43;;;;;;;13.60;12.20;;;;;;;10.63;100.00;99760.81;6278445;22;20215;-83
2022/10/11 01:06:09;;;;;;;13.37;11.97;;;;;;;10.67;100.00;99764.69;6304239;22;20207;-87
2022/10/11 01:08:37;;;;;;;12.90;11.70;;;;;;;10.69;100.00;99759.09;6305002;22;20227;-82
2022/10/11 01:11:04;;;;;;;13.50;12.20;;;;;;;10.68;100.00;99763.66;6277610;22;20211;-83
2022/10/11 01:13:37;;;;;;;13.27;11.97;;;;;;;10.73;100.00;99760.34;6277951;22;20207;-82
2022/10/11 01:16:16;;;;;;;12.97;11.67;;;;;;;10.75;100.00;99761.75;6304333;22;20548;-82
2022/10/11 01:18:43;;;;;;;13.63;12.03;;;;;;;10.79;100.00;99770.16;6304987;22;20207;-82
2022/10/11 01:21:09;;;;;;;12.40;11.20;;;;;;;10.82;100.00;99767.06;6304766;22;20211;-83
2022/10/11 01:24:15;;;;;;;12.63;11.53;;;;;;;10.84;100.00;99773.03;6304902;22;20674;-82
2022/10/11 01:26:50;;;;;;;12.23;11.17;;;;;;;10.85;100.00;99767.44;6246602;22;20199;-83
2022/10/11 01:29:54;;;;;;;13.00;11.63;;;;;;;10.91;100.00;99771.13;6304495;22;20282;-82
2022/10/11 01:32:27;;;;;;;12.07;10.87;;;;;;;10.99;100.00;99773.53;6303903;22;20313;-82
2022/10/11 01:35:22;;;;;;;13.30;10.73;;;;;;;10.95;100.00;99764.28;6304845;22;20204;-82
2022/10/11 01:38:00;;;;;;;11.83;10.73;;;;;;;11.02;100.00;99770.41;6274112;22;20257;-83
2022/10/11 01:40:34;;;;;;;13.43;10.93;;;;;;;11.03;100.00;99766.69;6277131;22;20199;-83
2022/10/11 01:43:00;;;;;;;12.60;11.37;;;;;;;10.93;100.00;99761.00;6304756;22;20204;-81
2022/10/11 01:45:27;;;;;;;12.33;11.13;;;;;;;10.93;100.00;99766.34;6277269;22;20207;-82
2022/10/11 01:48:02;;;;;;;12.27;11.13;;;;;;;10.95;100.00;99764.28;6304408;22;20233;-82
2022/10/11 01:50:39;;;;;;;11.73;10.73;;;;;;;10.98;100.00;99767.34;6304130;22;20206;-81
2022/10/11 01:53:20;;;;;;;12.83;11.53;;;;;;;10.95;100.00;99772.31;6304795;22;20211;-81
2022/10/11 01:55:56;;;;;;;12.13;10.90;;;;;;;10.99;100.00;99782.38;6277241;22;20207;-82
2022/10/11 01:58:51;;;;;;;12.73;11.23;;;;;;;11.06;100.00;99781.53;6250899;22;20596;-82
2022/10/11 02:01:39;;;;;;;12.57;11.33;;;;;;;11.09;100.00;99787.25;6291333;22;20286;-82
2022/10/11 02:04:15;;;;;;;12.73;11.43;;;;;;;11.04;100.00;99782.56;6304040;22;20212;-82
2022/10/11 02:07:13;;;;;;;13.20;11.63;;;;;;;11.07;100.00;99789.34;6277225;22;20217;-82
2022/10/11 02:09:52;;;;;;;12.37;10.93;;;;;;;11.08;100.00;99795.53;6274615;22;20210;-82
2022/10/11 02:12:26;;;;;;;12.80;11.33;;;;;;;11.04;100.00;99787.91;6303676;22;20274;-82
2022/10/11 02:14:55;;;;;;;12.63;11.43;;;;;;;11.04;100.00;99792.47;6276661;22;20688;-82
2022/10/11 02:17:26;;;;;;;12.83;11.60;;;;;;;11.08;100.00;99790.16;6276964;22;20260;-81
2022/10/11 02:19:56;;;;;;;13.27;11.97;;;;;;;11.11;100.00;99787.84;6277075;22;20283;-82
2022/10/11 02:22:27;;;;;;;12.97;11.67;;;;;;;11.11;100.00;99789.72;6276286;22;20256;-81
2022/10/11 02:24:55;;;;;;;11.90;10.80;;;;;;;11.11;100.00;99785.16;6276929;22;20707;-81
2022/10/11 02:27:25;;;;;;;11.03;10.03;;;;;;;11.15;100.00;99786.38;6303828;22;20211;-83
2022/10/11 02:29:53;;;;;;;12.27;11.07;;;;;;;11.14;100.00;99790.13;6261665;22;20208;-85
2022/10/11 02:32:22;;;;;;;12.37;11.13;;;;;;;11.13;100.00;99777.75;6303337;22;20690;-83
2022/10/11 02:34:57;;;;;;;12.53;11.23;;;;;;;11.16;100.00;99784.50;6276688;22;20195;-83
2022/10/11 02:37:31;;;;;;;12.03;11.00;;;;;;;11.16;100.00;99782.66;6276812;22;20207;-84
2022/10/11 02:40:02;;;;;;;12.60;10.87;;;;;;;11.17;100.00;99778.13;6276835;22;20242;-83
2022/10/11 02:42:32;;;;;;;12.60;11.40;;;;;;;11.07;100.00;99781.28;6303577;22;20711;-83
2022/10/11 02:45:03;;;;;;;13.93;11.23;;;;;;;11.01;100.00;99780.28;6276539;22;20283;-82
2022/10/11 02:47:31;;;;;;;12.67;11.47;;;;;;;11.08;100.00;99782.94;6276634;22;20211;-83
2022/10/11 02:49:58;;;;;;;13.13;11.83;;;;;;;11.13;100.00;99801.88;6276647;22;20210;-83
2022/10/11 02:52:25;;;;;;;13.67;11.80;;;;;;;11.09;100.00;99795.31;6260748;22;20264;-83
2022/10/11 02:54:52;;;;;;;12.73;11.43;;;;;;;11.11;100.00;99789.72;6276822;22;20597;-83
2022/10/11 02:57:18;;;;;;;12.23;10.97;;;;;;;11.08;100.00;99798.19;6276819;22;20210;-82
2022/10/11 02:59:45;;;;;;;11.53;10.40;;;;;;;11.06;100.00;99797.63;6276553;22;20260;-81
2022/10/11 03:02:12;;;;;;;12.87;11.67;;;;;;;11.04;100.00;99800.50;6303478;22;20207;-82
2022/10/11 03:04:38;;;;;;;12.87;11.63;;;;;;;10.97;100.00;99813.13;6303820;22;20206;-82
2022/10/11 03:07:05;;;;;;;11.90;10.70;;;;;;;10.95;100.00;99812.53;6304183;22;20236;-81
2022/10/11 03:09:31;;;;;;;11.77;10.63;;;;;;;10.92;100.00;99816.44;6304205;22;20215;-82
2022/10/11 03:11:58;;;;;;;12.07;10.97;;;;;;;10.92;100.00;99810.28;6276708;22;20199;-82
2022/10/11 03:14:25;;;;;;;12.43;11.23;;;;;;;10.87;100.00;99813.59;6303010;22;20210;-81
2022/10/11 03:16:52;;;;;;;12.70;11.53;;;;;;;10.88;100.00;99809.06;6303821;22;20505;-82
2022/10/11 03:19:18;;;;;;;12.73;11.57;;;;;;;10.85;100.00;99814.88;6303385;22;20210;-82
2022/10/11 03:21:45;;;;;;;12.43;11.13;;;;;;;10.87;100.00;99813.59;6303986;22;20249;-84
2022/10/11 03:24:12;;;;;;;13.20;11.90;;;;;;;10.88;100.00;99817.09;6303177;22;20503;-82
2022/10/11 03:26:38;;;;;;;12.37;11.17;;;;;;;10.90;100.00;99823.09;6302696;22;20203;-82
2022/10/11 03:29:05;;;;;;;11.67;10.57;;;;;;;10.85;100.00;99828.28;6303392;22;20694;-81
2022/10/11 03:31:31;;;;;;;12.63;11.43;;;;;;;10.84;100.00;99823.94;6303334;22;20675;-82
2022/10/11 03:33:58;;;;;;;12.47;11.27;;;;;;;10.81;100.00;99824.38;6303406;22;20663;-81
2022/10/11 03:36:24;;;;;;;12.57;11.07;;;;;;;10.84;100.00;99823.94;6287784;22;20713;-81
2022/10/11 03:38:51;;;;;;;12.87;11.57;;;;;;;10.82;100.00;99826.03;6302409;22;20203;-81
2022/10/11 03:41:18;;;;;;;12.50;11.40;;;;;;;10.73;100.00;99828.13;6303344;22;20237;-82
2022/10/11 03:43:44;;;;;;;13.77;12.37;;;;;;;10.72;100.00;99831.88;6303549;22;20207;-82
2022/10/11 03:46:11;;;;;;;12.00;10.90;;;;;;;10.74;100.00;99837.00;6302793;22;20269;-82
2022/10/11 03:48:37;;;;;;;12.90;11.70;;;;;;;10.76;100.00;99830.41;6276944;22;20187;-82
2022/10/11 03:51:04;;;;;;;14.43;11.80;;;;;;;10.71;100.00;99835.56;6303321;22;20544;-82
2022/10/11 03:53:31;;;;;;;12.13;11.07;;;;;;;10.63;100.00;99835.00;6303739;22;20203;-82
2022/10/11 03:55:57;;;;;;;13.57;12.13;;;;;;;10.55;100.00;99833.38;6303534;22;20225;-83
2022/10/11 03:58:24;;;;;;;12.60;11.40;;;;;;;10.60;100.00;99841.59;6302793;22;20584;-82
2022/10/11 04:00:51;;;;;;;12.53;11.37;;;;;;;10.59;100.00;99838.09;6303228;22;20750;-82
2022/10/11 04:03:18;;;;;;;12.30;11.20;;;;;;;10.53;100.00;99840.84;6303606;22;20211;-81
2022/10/11 04:05:44;;;;;;;12.90;11.70;;;;;;;10.49;100.00;99842.31;6303038;22;20538;-82
2022/10/11 04:08:11;;;;;;;12.67;11.47;;;;;;;10.53;100.00;99846.19;6302829;22;20199;-82
2022/10/11 04:10:38;;;;;;;12.17;11.07;;;;;;;10.51;100.00;99842.91;6303999;22;20655;-82
2022/10/11 04:13:06;;;;;;;13.13;11.87;;;;;;;10.54;100.00;99837.91;6303615;22;20211;-82
2022/10/11 04:15:32;;;;;;;13.53;11.70;;;;;;;10.50;100.00;99835.88;6303599;22;20203;-81
2022/10/11 04:17:59;;;;;;;13.37;12.07;;;;;;;10.46;100.00;99832.81;6303652;22;20207;-82
2022/10/11 04:20:25;;;;;;;12.57;11.40;;;;;;;10.48;100.00;99830.75;6303208;22;20211;-82
2022/10/11 04:22:52;;;;;;;12.57;11.37;;;;;;;10.46;100.00;99827.47;6303224;22;20214;-82
2022/10/11 04:25:19;;;;;;;12.87;11.57;;;;;;;10.45;100.00;99833.84;6256341;22;1075579;-82
2022/10/11 04:27:45;;;;;;;13.00;11.80;;;;;;;10.48;100.00;99836.13;6275762;22;20738;-83
2022/10/11 04:30:12;;;;;;;13.00;11.23;;;;;;;10.46;100.00;99832.81;6304344;22;20199;-81
2022/10/11 04:32:39;;;;;;;16.83;15.03;;;;;;;10.48;100.00;99835.28;6305082;22;20200;-82
2022/10/11 04:35:05;;;;;;;14.57;13.23;;;;;;;10.52;100.00;99840.00;6301559;22;20296;-82
2022/10/11 04:37:32;;;;;;;16.30;12.47;;;;;;;10.50;100.00;99833.22;6275663;22;20671;-81
2022/10/11 04:39:58;;;;;;;14.67;13.27;;;;;;;10.45;100.00;99830.38;6277476;22;20286;-81
2022/10/11 04:42:25;;;;;;;15.90;13.60;;;;;;;10.50;100.00;99836.72;6304298;22;20648;-84
2022/10/11 04:44:52;;;;;;;16.07;14.47;;;;;;;10.45;100.00;99830.38;6301481;22;20639;-84
2022/10/11 04:47:18;;;;;;;16.80;15.00;;;;;;;10.47;100.00;99839.00;6302715;22;20199;-80
2022/10/11 04:49:45;;;;;;;16.43;14.83;;;;;;;10.45;100.00;99841.88;6301717;22;20683;-81
2022/10/11 04:52:11;;;;;;;16.50;13.50;;;;;;;10.48;100.00;99846.84;6302681;22;20694;-81
2022/10/11 04:54:38;;;;;;;17.40;14.47;;;;;;;10.47;100.00;99849.72;6304970;22;20207;-82
2022/10/11 04:57:04;;;;;;;15.13;13.57;;;;;;;10.48;100.00;99844.16;6304926;22;20663;-83
2022/10/11 04:59:31;;;;;;;14.63;13.17;;;;;;;10.43;100.00;99846.66;6252369;22;20519;-83
2022/10/11 05:01:58;;;;;;;16.13;13.60;;;;;;;10.42;100.00;99852.22;6292179;22;20513;-83
2022/10/11 05:04:24;;;;;;;14.20;12.83;;;;;;;10.42;100.00;99850.34;6304391;22;20694;-83
2022/10/11 05:06:51;;;;;;;13.43;12.23;;;;;;;10.45;100.00;99857.16;6304930;22;20643;-82
2022/10/11 05:09:18;;;;;;;15.07;13.47;;;;;;;10.47;100.00;99860.44;6304649;22;20226;-82
2022/10/11 05:11:44;;;;;;;14.37;13.03;;;;;;;10.44;100.00;99848.31;6304692;22;20583;-82
2022/10/11 05:14:11;;;;;;;14.87;13.13;;;;;;;10.45;100.00;99854.47;6304090;22;20222;-82
2022/10/11 05:16:37;;;;;;;23.40;13.57;;;;;;;10.46;100.00;99854.25;6304907;22;20583;-83
2022/10/11 05:19:04;;;;;;;22.57;13.63;;;;;;;10.48;100.00;99862.09;6304560;22;20211;-82
2022/10/11 05:21:30;;;;;;;14.50;13.20;;;;;;;10.42;100.00;99857.56;6304803;22;20211;-82
2022/10/11 05:23:57;;;;;;;14.43;13.00;;;;;;;10.43;100.00;99867.25;6262581;22;20225;-82
2022/10/11 05:26:26;;;;;;;16.03;13.97;;;;;;;10.45;100.00;99863.31;6303744;22;20206;-82
2022/10/11 05:28:53;;;;;;;16.00;13.63;;;;;;;10.45;100.00;99871.34;6276521;22;20203;-83
2022/10/11 05:31:20;;;;;;;14.40;13.03;;;;;;;10.42;100.00;99865.59;6275767;22;20210;-81
2022/10/11 05:33:47;;;;;;;14.87;13.37;;;;;;;10.49;100.00;99874.44;6304530;22;20194;-82
2022/10/11 05:36:14;;;;;;;14.90;12.43;;;;;;;10.48;100.00;99880.84;6303965;22;20206;-81
2022/10/11 05:38:40;;;;;;;14.47;13.07;;;;;;;10.46;100.00;99886.41;6277891;22;20207;-82
2022/10/11 05:41:10;;;;;;;14.47;12.93;;;;;;;10.52;100.00;99890.09;6304486;22;20207;-81
2022/10/11 05:43:37;;;;;;;15.67;13.07;;;;;;;10.52;100.00;99885.56;6276394;22;20260;-82
2022/10/11 05:46:04;;;;;;;13.90;12.50;;;;;;;10.67;100.00;99892.50;6287237;22;20207;-84
2022/10/11 05:48:31;;;;;;;16.63;13.30;;;;;;;10.67;100.00;99893.31;6252215;22;20199;-87
2022/10/11 05:51:03;;;;;;;16.80;13.90;;;;;;;10.75;100.00;99900.28;6307224;22;20214;-92
2022/10/11 05:53:31;;;;;;;14.90;13.40;;;;;;;10.89;100.00;99908.03;6254663;22;20652;-90
2022/10/11 05:55:58;;;;;;;15.77;13.67;;;;;;;11.00;100.00;99907.38;6253239;22;20211;-91
2022/10/11 05:58:25;;;;;;;16.00;14.30;;;;;;;11.07;100.00;99909.16;6252116;22;20199;-91
2022/10/11 06:00:52;;;;;;;16.13;14.30;;;;;;;11.19;100.00;99905.59;6304825;22;20226;-91
2022/10/11 06:03:19;;;;;;;15.70;14.10;;;;;;;11.27;100.00;99921.41;6253034;22;20282;-91
2022/10/11 06:05:46;;;;;;;15.77;13.97;;;;;;;11.38;100.00;99911.88;6278679;22;20227;-90
2022/10/11 06:08:13;;;;;;;18.57;14.77;;;;;;;11.51;100.00;99918.97;6253382;22;20226;-90
2022/10/11 06:10:40;;;;;;;17.03;14.07;;;;;;;11.53;100.00;99922.25;6253506;22;20203;-92
2022/10/11 06:13:08;;;;;;;16.87;13.97;;;;;;;11.54;100.00;99924.72;6253055;22;20204;-91
2022/10/11 06:15:37;;;;;;;16.13;14.43;;;;;;;11.56;100.00;99924.50;6276564;22;20208;-91
2022/10/11 06:18:04;;;;;;;15.60;13.87;;;;;;;11.69;100.00;99929.75;6252940;22;20213;-92
2022/10/11 06:20:31;;;;;;;15.10;13.60;;;;;;;11.71;100.00;99939.22;6226895;22;20203;-92
2022/10/11 06:22:57;;;;;;;15.63;14.17;;;;;;;11.82;100.00;99935.88;6251797;22;20278;-92
2022/10/11 06:25:24;;;;;;;16.17;14.60;;;;;;;11.87;100.00;99941.41;6251457;22;20597;-92
2022/10/11 06:27:51;;;;;;;16.93;14.50;;;;;;;11.93;100.00;99941.56;6277437;22;20203;-92
2022/10/11 06:30:17;;;;;;;16.47;14.13;;;;;;;12.04;100.00;99948.91;6236842;22;20845;-92
2022/10/11 06:32:44;;;;;;;20.40;15.03;;;;;;;12.14;100.00;99957.25;6277763;22;20195;-92
2022/10/11 06:35:11;;;;;;;15.93;14.27;;;;;;;12.24;100.00;99961.09;6225837;22;20206;-93
2022/10/11 06:37:37;;;;;;;15.47;13.53;;;;;;;12.35;100.00;99965.72;6252900;22;20290;-92
2022/10/11 06:40:04;;;;;;;15.40;13.90;;;;;;;12.45;100.00;99969.75;6251119;22;20528;-92
2022/10/11 06:42:31;;;;;;;14.03;12.50;;;;;;;12.48;100.00;99967.44;6252602;22;20196;-92
2022/10/11 06:44:58;;;;;;;13.77;12.37;;;;;;;12.55;100.00;99975.44;6227218;22;20227;-92
2022/10/11 06:47:24;;;;;;;14.40;13.00;;;;;;;12.46;100.00;99972.22;6277806;22;20225;-92
2022/10/11 06:49:51;;;;;;;15.77;12.60;;;;;;;12.44;100.00;99960.06;6252281;22;20207;-93
2022/10/11 06:52:18;;;;;;;14.53;12.43;;;;;;;12.52;100.00;99971.31;6276841;22;20205;-92
2022/10/11 06:54:44;;;;;;;14.53;13.23;;;;;;;12.40;100.00;99967.75;6252038;22;20290;-91
2022/10/11 06:57:11;;;;;;;16.33;13.87;;;;;;;12.50;100.00;99976.13;6226851;22;20204;-92
2022/10/11 06:59:38;;;;;;;15.33;12.80;;;;;;;12.64;100.00;99979.47;6277795;22;20212;-92
2022/10/11 07:02:05;;;;;;;14.20;12.80;;;;;;;12.82;100.00;99984.84;6277324;22;20234;-92
2022/10/11 07:04:32;;;;;;;15.03;12.27;;;;;;;12.93;100.00;99973.31;6252003;22;20200;-93
2022/10/11 07:06:59;;;;;;;13.60;12.20;;;;;;;13.01;100.00;99981.09;6277595;22;20231;-92
2022/10/11 07:09:26;;;;;;;13.30;12.07;;;;;;;13.15;100.00;99976.38;6277278;22;20223;-91
2022/10/11 07:11:52;;;;;;;14.37;12.03;;;;;;;13.10;100.00;99978.91;6277780;22;20203;-93
2022/10/11 07:14:19;;;;;;;16.30;11.67;;;;;;;13.09;100.00;99979.94;6250477;22;20299;-92
2022/10/11 07:16:46;;;;;;;13.47;11.90;;;;;;;13.06;100.00;99975.03;6251981;22;20193;-92
2022/10/11 07:19:12;;;;;;;13.67;10.97;;;;;;;13.09;100.00;99980.78;6227083;22;20219;-92
2022/10/11 07:21:39;;;;;;;12.83;11.57;;;;;;;13.09;100.00;99986.16;6277699;22;20209;-94
2022/10/11 07:24:06;;;;;;;13.30;12.00;;;;;;;13.18;100.00;99987.50;6226001;22;20406;-93
2022/10/11 07:26:33;;;;;;;12.00;10.83;;;;;;;13.22;100.00;99987.84;6251038;22;20280;-91
2022/10/11 07:29:06;;;;;;;14.80;11.60;;;;;;;13.19;100.00;99989.16;6277238;22;20215;-89
2022/10/11 07:31:33;;;;;;;12.70;11.50;;;;;;;13.15;100.00;99996.03;6302830;22;20202;-88
2022/10/11 07:33:59;;;;;;;12.60;11.30;;;;;;;13.33;100.00;99999.72;6277110;22;20208;-89
2022/10/11 07:36:26;;;;;;;13.03;11.00;;;;;;;13.36;100.00;99996.56;6261832;22;20275;-89
2022/10/11 07:38:54;;;;;;;13.50;12.10;;;;;;;13.51;100.00;100000.50;6277488;22;20205;-89
2022/10/11 07:41:20;;;;;;;13.63;12.23;;;;;;;13.57;100.00;100004.16;6277227;22;20204;-90
2022/10/11 07:43:48;;;;;;;13.10;11.70;;;;;;;13.74;100.00;100002.41;6303963;22;20283;-90
2022/10/11 07:46:16;;;;;;;13.13;11.93;;;;;;;13.67;100.00;100005.19;6276168;22;20745;-89
2022/10/11 07:48:42;;;;;;;13.33;11.87;;;;;;;13.80;100.00;100004.19;6302893;22;20245;-89
2022/10/11 07:51:10;;;;;;;12.63;11.37;;;;;;;14.00;100.00;99999.28;6250939;22;20217;-89
2022/10/11 07:53:42;;;;;;;13.43;11.40;;;;;;;14.03;100.00;100003.41;6304375;22;20402;-90
2022/10/11 07:56:11;;;;;;;13.47;11.43;;;;;;;13.93;100.00;100001.28;6276666;22;20253;-89
2022/10/11 07:58:39;;;;;;;12.37;10.90;;;;;;;13.98;100.00;100001.41;6304202;22;20203;-90
2022/10/11 08:01:06;;;;;;;13.43;12.03;;;;;;;13.98;100.00;100005.97;6303809;22;20605;-89
2022/10/11 08:03:32;;;;;;;12.93;11.60;;;;;;;14.09;100.00;100008.66;6304039;22;20733;-90
2022/10/11 08:06:04;;;;;;;13.03;11.57;;;;;;;14.33;100.00;100011.38;6304098;22;20267;-89
2022/10/11 08:08:31;;;;;;;15.40;12.07;;;;;;;14.35;100.00;99998.50;6303146;22;20206;-89
2022/10/11 08:10:58;;;;;;;11.73;10.53;;;;;;;14.49;100.00;100003.44;6277388;22;20197;-90
2022/10/11 08:13:25;;;;;;;12.37;11.03;;;;;;;14.26;100.00;100010.69;6227386;22;20292;-89
2022/10/11 08:15:52;;;;;;;13.03;11.40;;;;;;;14.41;100.00;100001.13;6279556;22;20204;-95
2022/10/11 08:18:19;;;;;;;12.63;11.40;;;;;;;14.41;100.00;100003.81;6227661;22;20665;-86
2022/10/11 08:20:46;;;;;;;13.00;11.73;;;;;;;14.66;100.00;100008.91;6306177;22;20210;-89
2022/10/11 08:23:12;;;;;;;13.80;11.93;;;;;;;14.78;100.00;100012.44;6306229;22;20214;-88
2022/10/11 08:25:43;;;;;;;12.87;11.67;;;;;;;14.84;100.00;100018.72;6278945;22;20206;-88
2022/10/11 08:28:15;;;;;;;12.47;11.13;;;;;;;14.81;100.00;100020.03;6304894;22;20201;-89
2022/10/11 08:30:49;;;;;;;14.27;11.60;;;;;;;14.86;100.00;100020.16;6280506;22;20209;-90
2022/10/11 08:33:17;;;;;;;13.40;12.00;;;;;;;14.73;100.00;100023.13;6279255;22;20546;-89
2022/10/11 08:35:44;;;;;;;12.53;11.23;;;;;;;15.05;100.00;100026.19;6279406;22;20214;-90
2022/10/11 08:38:10;;;;;;;13.50;11.47;;;;;;;15.13;100.00;100030.41;6252679;22;20613;-86
2022/10/11 08:40:37;;;;;;;14.87;12.03;;;;;;;14.99;100.00;100022.56;6305822;22;20206;-89
2022/10/11 08:43:30;;;;;;;12.43;11.33;;;;;;;15.24;100.00;100027.66;6278667;22;20206;-89
2022/10/11 08:46:00;;;;;;;14.00;11.50;;;;;;;15.33;100.00;100028.94;6243193;22;20237;-84
2022/10/11 08:48:45;;;;;;;12.37;11.00;;;;;;;15.41;100.00;100020.44;6305859;22;20541;-84
2022/10/11 08:51:29;;;;;;;14.07;11.80;;;;;;;15.51;100.00;100025.25;6279822;22;20281;-86
2022/10/11 08:54:37;;;;;;;15.13;11.07;;;;;;;15.79;100.00;100022.50;6279806;22;20226;-89
2022/10/11 08:57:05;;;;;;;17.97;11.07;;;;;;;15.81;100.00;100027.69;6228224;22;20223;-90
2022/10/11 08:59:40;;;;;;;13.10;10.17;;;;;;;16.17;100.00;100032.59;6253316;22;20249;-86
2022/10/11 09:02:26;;;;;;;11.57;9.87;;;;;;;16.37;100.00;100034.81;6254221;22;20205;-89
2022/10/11 09:05:16;;;;;;;12.93;10.43;;;;;;;16.42;100.00;100036.75;6278788;22;20207;-92
2022/10/11 09:08:05;;;;;;;12.67;10.73;;;;;;;16.38;100.00;100030.22;6279282;22;20207;-91
2022/10/11 09:11:04;;;;;;;13.27;10.77;;;;;;;16.41;100.00;100035.13;6306139;22;20203;-91
2022/10/11 09:13:52;;;;;;;11.93;10.70;;;;;;;16.59;100.00;100037.59;6228548;22;20667;-91
2022/10/11 09:16:33;;;;;;;12.93;10.80;;;;;;;16.86;100.00;100032.25;6305396;22;20346;-89
2022/10/11 09:19:15;;;;;;;13.53;10.87;;;;;;;17.00;100.00;100037.06;6279961;22;20207;-89
2022/10/11 09:21:50;;;;;;;12.80;10.53;;;;;;;17.18;100.00;100033.19;6279822;22;20243;-92
2022/10/11 09:24:46;;;;;;;19.10;11.70;;;;;;;17.09;100.00;100040.97;6290414;22;20218;-88
2022/10/11 09:27:20;;;;;;;12.07;10.43;;;;;;;17.29;100.00;100040.38;6279500;22;20214;-92
2022/10/11 09:30:16;;;;;;;13.87;10.80;;;;;;;17.46;100.00;100041.09;6283788;22;20215;-89
2022/10/11 09:32:45;;;;;;;14.20;10.73;;;;;;;17.35;100.00;100027.72;6306922;22;20226;-87
2022/10/11 09:35:21;;;;;;;14.00;10.90;;;;;;;17.57;100.00;100029.31;6228885;22;20208;-89
2022/10/11 09:38:04;;;;;;;13.27;9.47;;;;;;;17.58;100.00;100030.16;6253803;22;20286;-86
2022/10/11 09:40:42;;;;;;;13.17;10.87;;;;;;;17.81;100.00;100029.84;6278985;22;20199;-88
2022/10/11 09:43:09;;;;;;;10.33;8.93;;;;;;;17.77;99.97;100026.03;6279100;22;20241;-87
2022/10/11 09:45:36;;;;;;;10.67;9.00;;;;;;;17.83;100.00;100024.97;6253809;22;20207;-88
2022/10/11 09:48:04;;;;;;;13.07;9.63;;;;;;;18.17;100.00;100027.44;6278528;22;20207;-89
2022/10/11 09:50:31;;;;;;;12.90;9.00;;;;;;;18.39;94.72;100023.53;6279419;22;20203;-88
2022/10/11 09:53:02;;;;;;;11.17;8.93;;;;;;;18.08;98.21;100026.28;6279349;22;20233;-87
2022/10/11 09:55:51;;;;;;;10.50;9.33;;;;;;;18.43;96.86;100024.63;6254366;22;20206;-88
2022/10/11 09:58:34;;;;;;;11.73;9.90;;;;;;;17.95;97.30;100019.41;6279091;22;20211;-88
2022/10/11 10:01:03;;;;;;;12.63;9.87;;;;;;;18.18;96.15;100019.03;6278967;22;20286;-88
2022/10/11 10:03:39;;;;;;;11.97;10.03;;;;;;;18.15;95.02;100027.69;6305955;22;20235;-88
2022/10/11 10:06:24;;;;;;;11.43;9.77;;;;;;;18.36;96.85;100017.81;6305217;22;20649;-86
2022/10/11 10:08:51;;;;;;;11.33;9.30;;;;;;;18.46;91.41;100021.41;6263340;22;20712;-87
2022/10/11 10:11:18;;;;;;;12.30;8.57;;;;;;;18.74;92.39;100025.69;6278336;22;20541;-85
2022/10/11 10:13:45;;;;;;;11.73;8.97;;;;;;;18.88;88.18;100024.13;6277901;22;20589;-85
2022/10/11 10:16:30;;;;;;;10.67;9.03;;;;;;;19.03;84.20;100015.25;6251525;22;20257;-85
2022/10/11 10:19:02;;;;;;;10.30;8.10;;;;;;;19.26;83.56;100024.81;6251642;22;20257;-85
2022/10/11 10:21:35;;;;;;;14.07;8.20;;;;;;;19.38;82.54;100021.84;6304896;22;20212;-84
2022/10/11 10:24:10;;;;;;;16.07;7.90;;;;;;;19.60;78.24;100017.03;6276012;22;20209;-86
2022/10/11 10:26:38;;;;;;;11.77;8.07;;;;;;;19.45;78.99;100020.56;6251810;22;20294;-87
2022/10/11 10:29:08;;;;;;;9.57;6.50;;;;;;;19.34;77.56;100021.59;6304571;22;20318;-88
2022/10/11 10:31:36;;;;;;;11.57;5.83;;;;;;;19.55;75.95;100015.13;6277015;22;20664;-86
2022/10/11 10:34:27;;;;;;;7.90;5.90;;;;;;;19.60;73.84;100006.97;6304530;22;20287;-86
2022/10/11 10:37:10;;;;;;;10.03;7.07;;;;;;;19.59;75.90;100012.72;6304513;22;20705;-87
2022/10/11 10:39:56;;;;;;;11.50;5.60;;;;;;;19.83;72.07;100013.81;6252315;22;20208;-85
2022/10/11 10:42:22;;;;;;;9.67;5.87;;;;;;;19.86;71.70;100007.03;6277042;22;20205;-83
2022/10/11 10:44:52;;;;;;;8.93;6.80;;;;;;;20.01;72.23;100016.00;6304172;22;20679;-85
2022/10/11 10:47:27;;;;;;;9.23;6.60;;;;;;;19.86;73.01;100009.75;6303818;22;20257;-84
2022/10/11 10:50:07;;;;;;;7.63;5.80;;;;;;;20.05;72.39;100019.00;6302418;22;20243;-85
2022/10/11 10:52:47;;;;;;;9.20;5.67;;;;;;;20.27;69.63;100010.53;6276769;22;20213;-84
2022/10/11 10:55:29;;;;;;;8.93;5.27;;;;;;;20.09;70.34;100010.03;6276583;22;20285;-84
2022/10/11 10:58:20;;;;;;;8.53;5.20;;;;;;;19.66;68.17;100014.06;6303842;22;20280;-85
2022/10/11 11:00:49;;;;;;;9.67;4.70;;;;;;;19.51;67.95;100003.16;6303618;22;20202;-85
2022/10/11 11:03:41;;;;;;;7.97;4.60;;;;;;;19.73;67.04;100001.03;6276485;22;20604;-85
2022/10/11 11:06:20;;;;;;;10.10;4.67;;;;;;;20.05;65.75;100008.13;6303218;22;20227;-84
2022/10/11 11:08:59;;;;;;;8.40;4.70;;;;;;;20.15;65.83;100005.41;6304320;22;20284;-85
2022/10/11 11:11:32;;;;;;;8.03;4.80;;;;;;;20.05;66.01;100006.22;6251531;22;20590;-83
2022/10/11 11:14:14;;;;;;;7.13;4.10;;;;;;;20.24;64.60;100001.03;6302379;22;20212;-86
2022/10/11 11:16:56;;;;;;;8.50;4.50;;;;;;;20.41;63.59;100000.75;6276812;22;20669;-83
2022/10/11 11:19:57;;;;;;;8.57;4.00;;;;;;;20.42;59.63;100005.13;6304235;22;20206;-88
2022/10/11 11:22:48;;;;;;;12.03;3.87;;;;;;;20.61;58.96;100008.88;6302703;22;20204;-82
2022/10/11 11:25:41;;;;;;;7.53;3.40;;;;;;;20.35;57.51;99997.22;6304023;22;20227;-83
2022/10/11 11:28:29;;;;;;;9.40;3.43;;;;;;;20.58;57.61;99999.34;6276836;22;20661;-87